Time;durP1;ratioP1;P1;durP2;ratioP2;P2;SDS_P1;SDS_P2;PMS_P1;PMS_P2;Temp;Humidity;BMP_temperature;BMP_pressure;BME280_temperature;BME280_humidity;BME280_pressure;Samples;Min_cycle;Max_cycle;Signal;HPM_P1;HPM_P2
2021/03/28 00:01:17;;;;;;;6.78;2.45;;;;;;;6.71;53.57;96999.63;5052953;28;20095;-56
2021/03/28 00:03:58;;;;;;;5.00;2.45;;;;;;;6.83;52.85;96996.59;5044727;28;20368;-56
2021/03/28 00:06:37;;;;;;;4.57;2.00;;;;;;;6.84;52.75;97002.78;5032516;28;20057;-52
2021/03/28 00:09:14;;;;;;;4.82;2.08;;;;;;;6.84;52.98;97000.88;5030912;28;20083;-53
2021/03/28 00:11:55;;;;;;;4.85;1.92;;;;;;;6.69;53.12;96996.41;5031567;28;20053;-53
2021/03/28 00:14:53;;;;;;;3.80;1.80;;;;;;;6.71;52.61;96996.94;5031333;28;20052;-54
2021/03/28 00:17:25;;;;;;;5.75;1.77;;;;;;;6.55;52.80;96998.13;5030803;28;20053;-54
2021/03/28 00:20:00;;;;;;;4.80;2.15;;;;;;;6.66;52.88;96993.47;5031495;28;20056;-53
2021/03/28 00:22:37;;;;;;;5.78;1.70;;;;;;;6.53;52.92;96998.44;5031842;28;20045;-55
2021/03/28 00:25:19;;;;;;;4.00;1.80;;;;;;;6.60;52.63;97002.66;5032219;28;20052;-51
2021/03/28 00:27:52;;;;;;;4.75;1.80;;;;;;;6.70;52.23;97005.31;5031458;28;20049;-55
2021/03/28 00:30:25;;;;;;;4.40;2.00;;;;;;;6.69;52.25;97003.69;5014831;28;20136;-54
2021/03/28 00:32:59;;;;;;;2.97;1.70;;;;;;;6.63;52.23;97007.50;5031123;28;20537;-55
2021/03/28 00:35:48;;;;;;;11.07;2.25;;;;;;;6.59;52.03;97009.94;5031714;28;20081;-51
2021/03/28 00:38:19;;;;;;;7.20;2.20;;;;;;;6.64;52.11;96995.66;5050217;28;20065;-55
2021/03/28 00:41:11;;;;;;;3.28;1.63;;;;;;;6.60;51.82;97000.81;5054772;28;20429;-52
2021/03/28 00:43:52;;;;;;;4.82;1.77;;;;;;;6.50;51.77;97006.22;5054640;28;20111;-54
2021/03/28 00:46:51;;;;;;;5.85;1.90;;;;;;;6.42;51.94;96999.56;5039621;28;20057;-53
2021/03/28 00:49:39;;;;;;;5.25;1.90;;;;;;;6.47;51.88;97002.25;5034051;28;20447;-52
2021/03/28 00:52:26;;;;;;;5.40;1.90;;;;;;;6.51;51.55;97005.16;5033199;28;20541;-54
2021/03/28 00:54:58;;;;;;;2.50;1.50;;;;;;;6.76;50.98;97002.28;5034304;28;20113;-52
2021/03/28 00:57:46;;;;;;;5.72;1.65;;;;;;;6.57;51.08;97000.56;5032843;28;20048;-51
2021/03/28 01:00:20;;;;;;;6.15;1.60;;;;;;;6.47;51.35;96998.75;5048863;28;20383;-56
2021/03/28 01:03:03;;;;;;;3.15;1.40;;;;;;;6.40;51.00;96996.38;5049001;28;20502;-54
2021/03/28 01:05:44;;;;;;;6.43;1.70;;;;;;;6.51;50.96;97002.47;5034561;28;20077;-51
2021/03/28 01:08:42;;;;;;;3.63;1.27;;;;;;;6.52;50.79;97004.88;5034540;28;20049;-54
2021/03/28 01:11:24;;;;;;;5.05;1.90;;;;;;;6.64;51.02;96984.91;5047221;28;20052;-55
2021/03/28 01:14:27;;;;;;;4.18;1.60;;;;;;;6.62;50.30;96992.44;5054094;28;20102;-53
2021/03/28 01:17:15;;;;;;;4.53;1.42;;;;;;;6.73;50.49;96986.72;5039621;28;20072;-52
2021/03/28 01:20:03;;;;;;;5.07;1.90;;;;;;;6.78;50.65;96989.34;5033958;28;20051;-53
2021/03/28 01:23:02;;;;;;;5.35;1.88;;;;;;;6.74;50.28;96974.88;5032826;28;20060;-53
2021/03/28 01:25:35;;;;;;;5.40;2.13;;;;;;;6.74;50.33;96977.56;5033939;28;20135;-50
2021/03/28 01:28:22;;;;;;;3.35;1.73;;;;;;;6.71;50.80;96978.13;5033358;28;20580;-51
2021/03/28 01:30:53;;;;;;;4.50;1.65;;;;;;;6.55;51.22;96971.25;5033736;28;20053;-53
2021/03/28 01:33:30;;;;;;;3.92;1.70;;;;;;;6.69;50.17;96974.91;5033597;28;20465;-54
2021/03/28 01:35:59;;;;;;;5.68;1.90;;;;;;;6.62;50.49;96971.72;5033820;28;20057;-54
2021/03/28 01:38:34;;;;;;;4.40;1.73;;;;;;;6.60;50.26;96965.03;5033192;28;20115;-53
2021/03/28 01:41:10;;;;;;;2.85;1.40;;;;;;;6.39;50.71;96972.44;5033500;28;20418;-51
2021/03/28 01:44:04;;;;;;;2.78;1.30;;;;;;;6.47;50.65;96963.81;5033379;28;20062;-51
2021/03/28 01:47:04;;;;;;;3.90;1.80;;;;;;;6.48;50.96;96962.72;5033227;28;20038;-52
2021/03/28 01:50:17;;;;;;;5.10;1.52;;;;;;;6.47;51.12;96966.50;5033404;28;20037;-51
2021/03/28 01:52:46;;;;;;;4.33;2.53;;;;;;;6.40;51.78;96968.66;5033557;28;20498;-52
2021/03/28 01:55:39;;;;;;;5.15;1.73;;;;;;;6.29;52.63;96968.75;5016984;28;20051;-50
2021/03/28 01:58:21;;;;;;;3.80;1.77;;;;;;;6.41;52.65;96970.28;5023030;28;20049;-54
2021/03/28 02:01:21;;;;;;;4.40;1.52;;;;;;;6.31;53.02;96965.78;5033246;28;20049;-54
2021/03/28 02:04:06;;;;;;;5.45;1.90;;;;;;;6.28;53.34;96964.47;5031821;28;20475;-53
2021/03/28 02:06:41;;;;;;;3.65;1.60;;;;;;;6.35;53.48;96966.84;5032782;28;20474;-52
2021/03/28 02:09:32;;;;;;;4.28;1.90;;;;;;;6.30;53.79;96969.53;5032571;28;20068;-51
2021/03/28 02:12:17;;;;;;;3.85;1.42;;;;;;;6.41;53.50;96970.28;5033149;28;20057;-55
2021/03/28 02:14:54;;;;;;;5.97;1.60;;;;;;;6.33;53.50;96959.03;5031829;28;20143;-55
2021/03/28 02:17:39;;;;;;;6.22;1.83;;;;;;;6.43;53.77;96955.47;5032551;28;20057;-55
2021/03/28 02:20:29;;;;;;;5.32;2.17;;;;;;;6.41;54.00;96956.84;5032759;28;20537;-55
2021/03/28 02:23:11;;;;;;;4.53;1.40;;;;;;;6.42;53.96;96961.13;5032895;28;20180;-52
2021/03/28 02:25:46;;;;;;;6.90;1.67;;;;;;;6.43;54.37;96958.16;5032396;28;20099;-54
2021/03/28 02:28:47;;;;;;;2.97;1.40;;;;;;;6.38;54.30;96955.53;5032553;28;20132;-55
2021/03/28 02:31:40;;;;;;;4.90;1.90;;;;;;;6.29;54.63;96957.19;5033130;28;20053;-54
2021/03/28 02:34:10;;;;;;;5.18;1.85;;;;;;;6.19;54.74;96952.69;5032840;28;20067;-53
2021/03/28 02:36:41;;;;;;;5.07;1.80;;;;;;;6.11;55.17;96957.84;5032482;28;20145;-55
2021/03/28 02:39:07;;;;;;;3.88;1.60;;;;;;;6.19;54.98;96960.75;5032296;28;20061;-54
2021/03/28 02:42:01;;;;;;;3.33;1.67;;;;;;;6.19;54.80;96952.69;5032421;28;20049;-54
2021/03/28 02:44:32;;;;;;;4.15;1.75;;;;;;;6.28;54.89;96950.22;5047881;28;20042;-50
2021/03/28 02:47:10;;;;;;;2.88;1.55;;;;;;;6.22;54.89;96952.13;5032352;28;20065;-54
2021/03/28 02:49:52;;;;;;;5.30;2.00;;;;;;;6.22;54.87;96948.66;5032137;28;20557;-55
2021/03/28 02:52:51;;;;;;;4.85;1.95;;;;;;;6.25;54.96;96959.63;5031168;28;20132;-54
2021/03/28 02:55:55;;;;;;;4.47;1.70;;;;;;;6.31;55.00;96966.59;5032294;28;20104;-51
2021/03/28 02:58:53;;;;;;;3.90;1.80;;;;;;;6.27;54.89;96962.03;5031944;28;20065;-52
2021/03/28 03:01:41;;;;;;;4.13;1.77;;;;;;;6.21;55.10;96963.19;5051885;28;20049;-53
2021/03/28 03:04:10;;;;;;;5.22;1.88;;;;;;;6.15;55.54;96962.41;5052388;28;20124;-54
2021/03/28 03:07:11;;;;;;;3.22;1.48;;;;;;;6.30;55.19;96965.00;5031964;28;20057;-52
2021/03/28 03:10:15;;;;;;;4.82;1.70;;;;;;;6.23;56.15;96969.84;5032818;28;20065;-55
2021/03/28 03:13:19;;;;;;;4.68;1.92;;;;;;;6.27;55.47;96965.56;5031815;28;20064;-54
2021/03/28 03:16:17;;;;;;;3.95;1.90;;;;;;;6.14;55.82;96962.66;5015661;28;20046;-54
2021/03/28 03:19:06;;;;;;;4.00;1.58;;;;;;;6.19;55.66;96959.94;5033289;28;20534;-55
2021/03/28 03:22:12;;;;;;;5.47;1.90;;;;;;;6.33;55.37;96963.59;5030650;28;20053;-51
2021/03/28 03:25:22;;;;;;;4.05;1.65;;;;;;;6.12;56.04;96964.84;5031315;28;20053;-55
2021/03/28 03:28:35;;;;;;;3.70;2.00;;;;;;;6.13;55.88;96963.75;5030999;28;20041;-54
2021/03/28 03:31:17;;;;;;;3.78;1.67;;;;;;;6.19;56.17;96962.63;5031777;28;20065;-54
2021/03/28 03:33:58;;;;;;;5.57;2.00;;;;;;;6.20;55.88;96964.22;5031274;28;20080;-56
2021/03/28 03:36:49;;;;;;;5.20;1.98;;;;;;;6.30;55.38;96966.84;5031267;28;20457;-52
2021/03/28 03:39:41;;;;;;;4.70;1.90;;;;;;;5.99;56.07;96968.94;5050823;28;20083;-55
2021/03/28 03:42:38;;;;;;;5.15;1.70;;;;;;;5.86;56.44;96971.13;5051198;28;20059;-56
2021/03/28 03:45:23;;;;;;;5.45;1.77;;;;;;;5.78;56.39;96970.88;5051208;28;20055;-54
2021/03/28 03:47:56;;;;;;;5.15;2.00;;;;;;;5.68;57.03;96973.59;5031027;28;20049;-56
2021/03/28 03:50:40;;;;;;;4.22;1.95;;;;;;;5.72;56.89;96975.50;5029903;28;20057;-56
2021/03/28 03:53:22;;;;;;;4.40;1.70;;;;;;;5.72;56.94;96980.84;5031098;28;20053;-52
2021/03/28 03:56:15;;;;;;;2.50;1.50;;;;;;;5.70;57.03;96977.63;5030899;28;20058;-55
2021/03/28 03:59:24;;;;;;;5.97;2.07;;;;;;;5.66;56.65;96975.78;5034427;28;20055;-53
2021/03/28 04:02:09;;;;;;;4.60;1.90;;;;;;;5.65;57.17;96983.00;5049702;28;20048;-53
2021/03/28 04:05:40;;;;;;;3.50;1.60;;;;;;;5.56;57.49;96990.84;5050996;28;20053;-54
2021/03/28 04:08:15;;;;;;;5.05;1.75;;;;;;;5.36;57.88;96988.19;5027047;28;20399;-53
2021/03/28 04:10:48;;;;;;;4.25;1.80;;;;;;;5.27;58.35;96985.28;5029765;28;20054;-53
2021/03/28 04:13:48;;;;;;;4.68;1.48;;;;;;;5.35;58.18;96983.91;5031147;28;20107;-55
2021/03/28 04:17:01;;;;;;;5.07;1.83;;;;;;;5.43;58.90;96977.19;5031096;28;20065;-53
2021/03/28 04:19:49;;;;;;;4.47;1.60;;;;;;;5.33;58.11;96984.22;5021371;28;20057;-53
2021/03/28 04:22:50;;;;;;;7.97;2.50;;;;;;;5.28;58.98;96986.91;5010155;28;20151;-53
2021/03/28 04:25:49;;;;;;;4.97;2.10;;;;;;;5.19;58.64;96987.72;5100930;27;20436;-52
2021/03/28 04:28:38;;;;;;;4.20;1.67;;;;;;;5.08;58.86;96984.25;5086672;28;20535;-50
2021/03/28 04:31:52;;;;;;;5.38;1.85;;;;;;;5.19;58.96;96987.72;5088113;28;20047;-51
2021/03/28 04:34:27;;;;;;;4.55;1.75;;;;;;;5.12;58.80;96994.16;5074937;28;20067;-52
2021/03/28 04:37:19;;;;;;;9.57;3.65;;;;;;;5.09;59.38;96991.22;5087566;28;20040;-53
2021/03/28 04:40:00;;;;;;;5.60;2.00;;;;;;;4.98;59.48;96990.44;5087925;28;20097;-50
2021/03/28 04:43:00;;;;;;;7.28;1.80;;;;;;;4.98;59.29;96997.69;5088116;28;20100;-51
2021/03/28 04:45:30;;;;;;;3.67;1.60;;;;;;;4.73;60.21;96999.28;5087934;28;20151;-55
2021/03/28 04:48:24;;;;;;;5.55;2.10;;;;;;;4.82;59.93;97004.94;5086531;28;20052;-56
2021/03/28 04:51:28;;;;;;;5.15;1.90;;;;;;;5.06;59.19;97013.22;5086256;28;20125;-52
2021/03/28 04:54:19;;;;;;;4.97;2.13;;;;;;;5.06;58.94;97016.69;5087574;28;20155;-55
2021/03/28 04:57:04;;;;;;;4.93;1.70;;;;;;;4.86;59.66;97016.72;5087972;28;20063;-55
2021/03/28 04:59:39;;;;;;;4.55;1.83;;;;;;;4.90;59.69;97020.47;5098834;28;20048;-55
2021/03/28 05:02:29;;;;;;;4.38;1.58;;;;;;;4.82;59.23;97029.88;5108935;28;20504;-55
2021/03/28 05:05:08;;;;;;;6.43;1.70;;;;;;;4.69;59.81;97033.09;5106818;28;20047;-53
2021/03/28 05:07:46;;;;;;;6.85;2.08;;;;;;;4.76;59.73;97030.13;5087665;28;20055;-52
2021/03/28 05:10:25;;;;;;;5.18;1.83;;;;;;;4.84;60.01;97034.94;5086405;28;20417;-53
2021/03/28 05:13:13;;;;;;;3.83;2.00;;;;;;;4.85;59.73;97040.06;5087754;28;20471;-51
2021/03/28 05:15:57;;;;;;;5.22;1.85;;;;;;;4.82;59.36;97040.59;5087742;28;20044;-55
2021/03/28 05:18:45;;;;;;;4.57;1.73;;;;;;;4.77;59.99;97039.78;5087184;28;20063;-53
2021/03/28 05:21:35;;;;;;;5.68;2.05;;;;;;;4.87;59.04;97039.78;5087691;28;20055;-51
2021/03/28 05:24:27;;;;;;;4.80;1.65;;;;;;;4.70;59.66;97053.44;5087076;28;20106;-55
2021/03/28 05:27:32;;;;;;;6.67;1.90;;;;;;;4.82;59.62;97043.28;5087185;28;20098;-51
2021/03/28 05:30:15;;;;;;;3.35;1.67;;;;;;;4.75;59.73;97056.16;5087351;28;20052;-51
2021/03/28 05:32:52;;;;;;;5.97;1.88;;;;;;;4.98;58.80;97051.31;5087423;28;20114;-54
2021/03/28 05:35:50;;;;;;;4.07;1.70;;;;;;;5.05;58.85;97054.53;5082322;28;20093;-54
2021/03/28 05:38:44;;;;;;;5.57;1.60;;;;;;;5.20;58.39;97065.28;5073775;28;20468;-56
2021/03/28 05:41:48;;;;;;;5.70;1.98;;;;;;;5.14;58.36;97067.16;5073826;28;20059;-52
2021/03/28 05:44:46;;;;;;;5.43;1.92;;;;;;;5.36;57.42;97066.88;5073828;28;20486;-55
2021/03/28 05:47:33;;;;;;;5.60;2.00;;;;;;;5.47;57.38;97061.47;5073453;28;20056;-53
2021/03/28 05:50:18;;;;;;;5.55;1.90;;;;;;;5.67;56.83;97074.03;5073657;28;20382;-52
2021/03/28 05:53:15;;;;;;;3.58;1.60;;;;;;;5.24;57.83;97073.59;5073527;28;20056;-51
2021/03/28 05:55:47;;;;;;;5.05;1.90;;;;;;;5.51;57.53;97067.91;5084145;28;20048;-51
2021/03/28 05:58:35;;;;;;;5.55;1.90;;;;;;;5.31;58.47;97076.78;5092093;28;20117;-51
2021/03/28 06:01:08;;;;;;;4.38;1.80;;;;;;;5.31;58.10;97088.31;5072482;28;20048;-52
2021/03/28 06:03:47;;;;;;;3.33;1.77;;;;;;;5.37;57.94;97086.44;5083189;28;20497;-51
2021/03/28 06:07:17;;;;;;;3.25;1.70;;;;;;;5.37;57.71;97086.44;5093769;28;20125;-51
2021/03/28 06:10:05;;;;;;;5.20;1.75;;;;;;;5.48;57.49;97084.53;5068318;28;20048;-51
2021/03/28 06:12:32;;;;;;;4.32;1.95;;;;;;;5.35;57.39;97089.38;5055579;28;20052;-54
2021/03/28 06:15:36;;;;;;;5.30;1.88;;;;;;;5.51;56.76;97094.75;5072973;28;20040;-52
2021/03/28 06:18:33;;;;;;;5.88;1.77;;;;;;;5.51;56.66;97102.78;5061579;28;20048;-51
2021/03/28 06:21:33;;;;;;;3.40;1.48;;;;;;;5.62;56.18;97099.00;5072715;28;20531;-53
2021/03/28 06:24:19;;;;;;;2.88;1.58;;;;;;;5.49;55.65;97110.31;5072973;28;20121;-54
2021/03/28 06:27:18;;;;;;;7.43;1.63;;;;;;;5.62;55.60;97107.06;5072670;28;20059;-54
2021/03/28 06:30:13;;;;;;;3.08;1.63;;;;;;;5.64;55.62;97115.66;5074213;28;20048;-52
2021/03/28 06:33:01;;;;;;;7.55;3.00;;;;;;;5.70;55.29;97117.25;5053324;28;20422;-54
2021/03/28 06:35:46;;;;;;;5.20;1.80;;;;;;;5.75;54.91;97125.31;5054301;28;20045;-50
2021/03/28 06:38:37;;;;;;;3.47;1.50;;;;;;;5.73;54.63;97121.28;5051841;28;20425;-50
2021/03/28 06:41:10;;;;;;;4.18;1.80;;;;;;;5.77;55.09;97127.72;5047128;28;20041;-50
2021/03/28 06:44:04;;;;;;;3.57;1.53;;;;;;;5.93;54.21;97121.25;5062288;28;20048;-53
2021/03/28 06:47:13;;;;;;;4.28;1.45;;;;;;;6.00;53.87;97127.16;5062681;28;20048;-51
2021/03/28 06:50:13;;;;;;;4.05;1.48;;;;;;;6.21;53.14;97129.78;5026571;28;20048;-48
2021/03/28 06:53:17;;;;;;;4.65;1.73;;;;;;;6.21;53.64;97133.28;5055860;28;20535;-49
2021/03/28 06:55:45;;;;;;;7.18;2.28;;;;;;;6.23;53.39;97149.91;5070084;28;20044;-52
2021/03/28 06:58:49;;;;;;;6.53;1.55;;;;;;;6.24;53.08;97137.28;5071954;28;20053;-52
2021/03/28 07:01:37;;;;;;;4.50;1.67;;;;;;;6.13;53.47;97135.72;5073394;28;20390;-48
2021/03/28 07:04:03;;;;;;;5.00;1.73;;;;;;;6.16;53.30;97146.72;5072006;28;20052;-53
2021/03/28 07:06:48;;;;;;;3.35;1.55;;;;;;;6.13;52.98;97149.16;5072928;28;20060;-50
2021/03/28 07:09:42;;;;;;;6.38;1.60;;;;;;;6.22;52.93;97156.38;5072124;28;20064;-49
2021/03/28 07:12:32;;;;;;;5.20;2.22;;;;;;;6.32;52.89;97148.28;5072685;28;20055;-49
2021/03/28 07:15:13;;;;;;;5.15;1.65;;;;;;;6.50;52.35;97149.56;5072259;28;20456;-51
2021/03/28 07:18:02;;;;;;;6.53;2.45;;;;;;;6.77;51.58;97149.16;5053600;28;20060;-50
2021/03/28 07:20:57;;;;;;;3.67;1.60;;;;;;;6.53;51.83;97150.88;5072136;28;20044;-50
2021/03/28 07:23:57;;;;;;;4.05;1.70;;;;;;;6.67;51.18;97162.66;5069614;28;20055;-53
2021/03/28 07:27:07;;;;;;;3.30;1.60;;;;;;;6.54;51.17;97147.91;5072013;28;20053;-54
2021/03/28 07:30:02;;;;;;;7.75;1.70;;;;;;;6.67;50.96;97143.03;5070761;28;20048;-50
2021/03/28 07:32:51;;;;;;;6.50;1.80;;;;;;;6.66;50.77;97149.47;5046569;28;20052;-49
2021/03/28 07:35:45;;;;;;;5.95;1.63;;;;;;;6.86;50.27;97143.16;5051654;28;20164;-50
2021/03/28 07:39:00;;;;;;;6.20;1.75;;;;;;;6.94;50.06;97143.38;5060694;28;20513;-52
2021/03/28 07:41:54;;;;;;;5.68;1.60;;;;;;;6.96;49.41;97153.88;5071680;28;20056;-49
2021/03/28 07:44:58;;;;;;;7.07;1.70;;;;;;;7.03;49.28;97154.38;5071415;28;20049;-52
2021/03/28 07:48:12;;;;;;;3.65;1.60;;;;;;;7.64;48.22;97151.22;5071602;28;20052;-49
2021/03/28 07:50:51;;;;;;;;;;;;;;;8.12;47.26;97153.94;5010292;28;20118;-52
2021/03/28 07:53:42;;;;;;;5.03;1.67;;;;;;;7.78;47.82;97153.25;5070853;28;19954;-49
2021/03/28 07:56:15;;;;;;;4.18;1.75;;;;;;;7.15;49.62;97151.31;5071727;28;20048;-52
2021/03/28 07:59:11;;;;;;;9.77;2.40;;;;;;;7.50;49.16;97150.25;5069529;28;20414;-46
2021/03/28 08:01:50;;;;;;;8.25;2.22;;;;;;;7.57;48.62;97148.06;5065720;28;20052;-47
2021/03/28 08:04:29;;;;;;;6.55;1.95;;;;;;;7.65;48.20;97138.53;5070235;28;20055;-50
2021/03/28 08:07:17;;;;;;;8.23;1.80;;;;;;;7.97;47.87;97146.03;5070636;28;20520;-52
2021/03/28 08:09:55;;;;;;;12.93;4.13;;;;;;;8.02;48.10;97137.88;5051505;28;20052;-54
2021/03/28 08:12:33;;;;;;;9.20;2.45;;;;;;;8.14;47.41;97130.22;5051319;28;20057;-49
2021/03/28 08:15:19;;;;;;;5.57;1.92;;;;;;;8.17;47.28;97123.47;5051768;28;20087;-48
2021/03/28 08:17:54;;;;;;;7.97;2.30;;;;;;;8.49;46.44;97130.94;5069383;28;20056;-53
2021/03/28 08:20:48;;;;;;;6.55;2.60;;;;;;;8.78;45.43;97144.31;5071142;28;20060;-55
2021/03/28 08:23:52;;;;;;;6.70;1.90;;;;;;;8.22;45.76;97136.06;5071382;28;20048;-54
2021/03/28 08:26:42;;;;;;;5.80;2.40;;;;;;;8.19;45.63;97132.06;5051128;28;20057;-51
2021/03/28 08:29:25;;;;;;;5.97;2.10;;;;;;;8.32;45.78;97135.94;5051207;28;20417;-49
2021/03/28 08:32:10;;;;;;;;;;;;;;;8.11;45.65;97141.56;5051442;28;20056;-51
2021/03/28 08:35:05;;;;;;;8.90;2.15;;;;;;;8.30;45.59;97143.53;5061352;28;19920;-53
2021/03/28 08:37:41;;;;;;;6.18;1.98;;;;;;;8.55;44.43;97139.75;5070156;28;20071;-48
2021/03/28 08:40:22;;;;;;;5.20;2.03;;;;;;;8.29;44.19;97142.72;5053107;28;20436;-51
2021/03/28 08:43:00;;;;;;;5.60;1.90;;;;;;;8.47;44.60;97146.59;5070967;28;20412;-53
2021/03/28 08:45:52;;;;;;;4.75;1.75;;;;;;;8.88;44.15;97154.16;5070392;28;20079;-53
2021/03/28 08:48:28;;;;;;;8.55;2.05;;;;;;;8.68;44.44;97149.84;5070765;28;20049;-50
2021/03/28 08:51:13;;;;;;;7.50;2.33;;;;;;;8.97;43.70;97148.88;5070984;28;20478;-49
2021/03/28 08:53:58;;;;;;;8.30;2.83;;;;;;;9.14;43.32;97146.50;5070853;28;20056;-50
2021/03/28 08:57:14;;;;;;;6.97;2.33;;;;;;;8.79;43.93;97145.91;5069786;28;20471;-48
2021/03/28 08:59:47;;;;;;;5.03;1.60;;;;;;;9.01;43.10;97139.94;5070552;28;20061;-52
2021/03/28 09:02:18;;;;;;;7.88;1.85;;;;;;;9.44;41.95;97145.22;5069682;28;20048;-51
2021/03/28 09:05:00;;;;;;;3.95;1.90;;;;;;;9.41;43.82;97136.91;5069438;28;20514;-56
2021/03/28 09:08:04;;;;;;;5.68;1.88;;;;;;;9.62;41.81;97119.25;5069985;28;20075;-49
2021/03/28 09:11:08;;;;;;;5.63;1.77;;;;;;;9.36;41.90;97132.41;5071851;28;20045;-50
2021/03/28 09:14:13;;;;;;;5.85;2.00;;;;;;;9.27;42.22;97139.56;5074206;28;20061;-51
2021/03/28 09:16:42;;;;;;;7.07;1.80;;;;;;;8.92;42.42;97138.97;5072175;28;20660;-53
2021/03/28 09:19:17;;;;;;;6.00;1.70;;;;;;;8.94;41.51;97146.78;5072330;28;20506;-46
2021/03/28 09:21:52;;;;;;;6.35;1.60;;;;;;;9.04;41.37;97141.25;5056532;28;20049;-51
2021/03/28 09:24:33;;;;;;;5.38;1.70;;;;;;;9.27;41.37;97142.25;5074135;28;20051;-52
2021/03/28 09:27:31;;;;;;;7.70;2.20;;;;;;;9.41;40.82;97139.59;5074136;28;20056;-49
2021/03/28 09:30:07;;;;;;;5.40;1.83;;;;;;;9.44;39.30;97141.72;5074203;28;20385;-52
2021/03/28 09:32:53;;;;;;;4.97;1.58;;;;;;;9.68;38.69;97122.66;5072415;28;20052;-51
2021/03/28 09:35:35;;;;;;;3.28;1.70;;;;;;;9.64;39.41;97121.66;5074625;28;20053;-47
2021/03/28 09:38:39;;;;;;;4.63;1.40;;;;;;;9.59;38.96;97136.88;5073546;28;20072;-47
2021/03/28 09:41:47;;;;;;;5.35;1.42;;;;;;;9.81;38.62;97130.00;5074204;28;20045;-48
2021/03/28 09:44:35;;;;;;;3.78;1.38;;;;;;;9.60;37.46;97143.06;5072854;28;20044;-50
2021/03/28 09:47:19;;;;;;;3.75;1.20;;;;;;;9.50;38.67;97138.63;5047439;28;20045;-51
2021/03/28 09:50:14;;;;;;;4.70;1.27;;;;;;;9.21;38.80;97129.94;5068892;28;20052;-53
2021/03/28 09:52:46;;;;;;;5.00;1.80;;;;;;;9.36;39.30;97114.28;5027737;28;20502;-50
2021/03/28 09:55:44;;;;;;;7.18;1.70;;;;;;;9.95;38.61;97100.28;5071012;28;20037;-49
2021/03/28 09:58:38;;;;;;;5.13;1.70;;;;;;;9.79;38.42;97097.06;5062864;28;20044;-51
2021/03/28 10:01:16;;;;;;;;;;;;;;;9.76;38.78;97103.06;5071802;28;20055;-47
2021/03/28 10:04:04;;;;;;;5.55;1.65;;;;;;;9.85;39.29;97106.69;5053732;28;19920;-50
2021/03/28 10:06:31;;;;;;;4.95;1.40;;;;;;;9.93;39.51;97114.09;5061297;28;20417;-50
2021/03/28 10:09:17;;;;;;;6.22;1.40;;;;;;;10.04;39.00;97104.72;5070480;28;20607;-48
2021/03/28 10:11:56;;;;;;;5.38;2.00;;;;;;;10.33;38.30;97100.09;5059933;28;20049;-53
2021/03/28 10:14:45;;;;;;;9.07;1.60;;;;;;;10.53;37.41;97095.09;5065595;28;20059;-54
2021/03/28 10:17:44;;;;;;;5.47;1.35;;;;;;;10.79;37.31;97107.25;5067695;28;20079;-51
2021/03/28 10:20:16;;;;;;;6.15;2.30;;;;;;;10.96;37.03;97097.38;5063650;28;20060;-54
2021/03/28 10:22:52;;;;;;;5.72;1.77;;;;;;;11.04;36.72;97103.97;5068063;28;20067;-52
2021/03/28 10:25:31;;;;;;;5.30;1.67;;;;;;;10.77;37.87;97094.03;5069997;28;20052;-52
2021/03/28 10:28:29;;;;;;;5.10;1.50;;;;;;;10.48;38.27;97080.88;5065297;28;20486;-50
2021/03/28 10:31:27;;;;;;;5.63;1.73;;;;;;;10.46;38.36;97088.47;5069492;28;20525;-53
2021/03/28 10:34:25;;;;;;;4.32;1.80;;;;;;;10.84;38.27;97094.41;5073480;28;20045;-53
2021/03/28 10:37:22;;;;;;;5.65;1.52;;;;;;;10.90;38.06;97090.50;5058185;28;20053;-51
2021/03/28 10:39:51;;;;;;;6.43;1.70;;;;;;;11.14;37.82;97092.09;5042936;28;20041;-47
2021/03/28 10:42:46;;;;;;;4.95;1.92;;;;;;;10.63;37.88;97088.66;5063170;28;20132;-49
2021/03/28 10:45:31;;;;;;;5.75;1.85;;;;;;;10.34;38.76;97089.00;5069984;28;20413;-51
2021/03/28 10:48:07;;;;;;;6.32;1.50;;;;;;;10.37;38.76;97084.91;5071379;28;20052;-47
2021/03/28 10:50:58;;;;;;;7.20;2.75;;;;;;;10.17;39.08;97077.94;5041557;28;20041;-50
2021/03/28 10:53:31;;;;;;;9.98;2.55;;;;;;;10.35;38.02;97085.19;5057468;28;20568;-48
2021/03/28 10:56:23;;;;;;;4.55;1.75;;;;;;;10.59;37.40;97082.22;5072490;28;20422;-50
2021/03/28 10:59:12;;;;;;;3.03;1.30;;;;;;;10.62;36.94;97086.25;5057815;28;20055;-52
2021/03/28 11:02:15;;;;;;;3.50;1.50;;;;;;;10.92;36.59;97080.16;5073037;28;20047;-49
2021/03/28 11:05:00;;;;;;;;;;;;;;;10.75;36.52;97074.56;5068436;28;20486;-50
2021/03/28 11:07:50;;;;;;;3.88;1.30;;;;;;;10.71;35.31;97076.31;5057850;28;19920;-50
2021/03/28 11:10:53;;;;;;;8.75;2.08;;;;;;;10.81;35.73;97070.66;5025464;28;20421;-50
2021/03/28 11:13:26;;;;;;;4.82;1.48;;;;;;;10.80;35.10;97076.38;5041618;28;20147;-48
2021/03/28 11:15:58;;;;;;;5.00;1.60;;;;;;;11.07;35.21;97068.16;5065367;28;20076;-49
2021/03/28 11:18:37;;;;;;;3.55;1.60;;;;;;;11.39;34.49;97069.81;5072757;28;20785;-50
2021/03/28 11:21:38;;;;;;;6.13;1.95;;;;;;;11.73;33.51;97076.53;5054438;28;20070;-51
2021/03/28 11:24:19;;;;;;;4.28;1.98;;;;;;;12.10;33.66;97079.94;5051523;28;20122;-48
2021/03/28 11:27:01;;;;;;;4.05;1.48;;;;;;;12.02;32.78;97076.06;5071489;28;20063;-48
2021/03/28 11:29:47;;;;;;;4.45;1.58;;;;;;;12.09;32.94;97073.72;5072616;28;20048;-53
2021/03/28 11:32:39;;;;;;;6.07;1.42;;;;;;;12.86;32.16;97064.09;5072583;28;20410;-50
2021/03/28 11:35:41;;;;;;;4.95;1.80;;;;;;;13.17;33.58;97063.16;5070096;28;20446;-52
2021/03/28 11:38:17;;;;;;;5.03;1.65;;;;;;;13.07;31.74;97064.28;5054795;28;20049;-50
2021/03/28 11:40:47;;;;;;;3.17;1.55;;;;;;;13.23;31.77;97061.88;5070806;28;20049;-51
2021/03/28 11:43:32;;;;;;;4.55;1.83;;;;;;;13.20;33.25;97057.06;5055786;28;20453;-48
2021/03/28 11:46:04;;;;;;;5.88;1.90;;;;;;;14.36;33.41;97052.53;5061419;28;20048;-53
2021/03/28 11:48:38;;;;;;;5.53;1.80;;;;;;;14.99;30.09;97053.44;5071792;28;20057;-50
2021/03/28 11:51:17;;;;;;;4.57;1.95;;;;;;;14.64;31.01;97048.22;5067000;28;20040;-54
2021/03/28 11:53:47;;;;;;;6.95;1.77;;;;;;;14.60;29.53;97046.50;5062757;28;20468;-50
2021/03/28 11:57:03;;;;;;;4.82;1.60;;;;;;;13.72;31.62;97045.31;5059086;28;20064;-53
2021/03/28 11:59:54;;;;;;;3.03;1.40;;;;;;;13.51;31.39;97045.22;5033397;28;20040;-52
2021/03/28 12:02:23;;;;;;;5.55;1.80;;;;;;;14.56;30.12;97046.38;5068084;28;20127;-51
2021/03/28 12:05:10;;;;;;;2.90;1.65;;;;;;;15.19;28.88;97038.97;5056002;28;20351;-51
2021/03/28 12:07:42;;;;;;;3.30;1.67;;;;;;;15.85;28.00;97037.34;5064735;28;20040;-50
2021/03/28 12:10:09;;;;;;;5.70;1.70;;;;;;;15.91;27.73;97038.72;5070025;28;20070;-52
2021/03/28 12:12:54;;;;;;;4.47;1.85;;;;;;;15.99;29.04;97028.84;5069427;28;20509;-50
2021/03/28 12:15:42;;;;;;;6.10;2.00;;;;;;;15.72;28.31;97030.28;5063247;28;20049;-51
2021/03/28 12:18:33;;;;;;;4.45;1.80;;;;;;;15.58;27.84;97025.91;5066938;28;20052;-48
2021/03/28 12:21:01;;;;;;;5.72;1.95;;;;;;;16.25;27.68;97031.22;5056919;28;20063;-54
2021/03/28 12:23:34;;;;;;;5.22;1.92;;;;;;;15.47;28.59;97024.75;5062571;28;20102;-49
2021/03/28 12:26:12;;;;;;;7.05;2.03;;;;;;;15.54;28.29;97024.22;5067256;28;20416;-58
2021/03/28 12:28:45;;;;;;;4.45;1.80;;;;;;;15.34;28.39;97031.28;5057216;28;20128;-56
2021/03/28 12:31:37;;;;;;;5.95;1.80;;;;;;;15.73;27.82;97020.97;5058542;28;20517;-53
2021/03/28 12:34:34;;;;;;;3.70;1.77;;;;;;;17.04;25.70;97027.00;5060864;28;20037;-50
2021/03/28 12:37:08;;;;;;;5.40;1.83;;;;;;;16.99;26.46;97015.50;5064573;28;20524;-54
2021/03/28 12:39:37;;;;;;;4.03;1.80;;;;;;;17.80;25.47;97018.09;5068902;28;20059;-53
2021/03/28 12:42:03;;;;;;;4.38;1.63;;;;;;;17.74;24.66;97009.31;5060583;28;20047;-50
2021/03/28 12:44:36;;;;;;;5.32;1.70;;;;;;;17.39;24.06;97006.47;5069156;28;20045;-53
2021/03/28 12:47:14;;;;;;;3.53;1.42;;;;;;;16.26;25.60;97011.00;5072391;28;20075;-50
2021/03/28 12:49:53;;;;;;;5.15;2.00;;;;;;;16.74;25.47;96998.38;5070710;28;20075;-52
2021/03/28 12:52:23;;;;;;;5.80;1.88;;;;;;;17.29;24.62;97002.31;5062905;28;20060;-51
2021/03/28 12:54:50;;;;;;;6.90;2.10;;;;;;;17.44;23.36;96996.06;5062779;28;20140;-53
2021/03/28 12:57:39;;;;;;;3.05;1.38;;;;;;;18.06;23.13;96998.41;5054834;28;20052;-54
2021/03/28 13:00:16;;;;;;;5.68;1.50;;;;;;;17.03;23.79;96994.56;5059009;28;20053;-53
2021/03/28 13:02:46;;;;;;;4.72;1.70;;;;;;;18.49;23.45;96993.91;5073200;28;20048;-54
2021/03/28 13:05:13;;;;;;;5.78;2.08;;;;;;;20.83;20.86;96984.75;5073010;28;20037;-52
2021/03/28 13:07:58;;;;;;;5.50;2.17;;;;;;;23.04;18.45;96985.91;5073589;28;20056;-53
2021/03/28 13:10:31;;;;;;;4.07;1.60;;;;;;;24.93;15.67;96987.97;5073639;28;20127;-49
2021/03/28 13:13:00;;;;;;;2.97;1.67;;;;;;;26.40;14.43;96994.63;5074895;28;20047;-53